Time;durP1;ratioP1;P1;durP2;ratioP2;P2;SDS_P1;SDS_P2;PMS_P1;PMS_P2;Temp;Humidity;BMP_temperature;BMP_pressure;BME280_temperature;BME280_humidity;BME280_pressure;Samples;Min_cycle;Max_cycle;Signal;HPM_P1;HPM_P2
2023/05/04 00:01:32;;;;;;;4.85;2.90;;;;;;;7.17;73.76;101834.75;4938968;29;20061;-86
2023/05/04 00:03:58;;;;;;;6.55;2.20;;;;;;;7.17;73.62;101824.31;4952067;28;20098;-91
2023/05/04 00:06:25;;;;;;;4.05;2.95;;;;;;;7.13;73.99;101825.06;4977149;28;20070;-86
2023/05/04 00:08:52;;;;;;;5.05;2.63;;;;;;;7.06;73.94;101823.16;4955980;28;20062;-81
2023/05/04 00:11:19;;;;;;;4.95;2.75;;;;;;;7.05;75.09;101821.41;4968188;28;20054;-82
2023/05/04 00:13:45;;;;;;;8.80;2.72;;;;;;;7.02;74.91;101817.00;4955748;28;20450;-89
2023/05/04 00:16:12;;;;;;;7.57;2.80;;;;;;;7.02;75.13;101830.03;4956111;28;20047;-83
2023/05/04 00:18:38;;;;;;;4.53;2.42;;;;;;;6.97;74.80;101830.75;4950028;28;20056;-84
2023/05/04 00:21:05;;;;;;;5.57;2.63;;;;;;;6.94;74.75;101824.63;4928986;29;20052;-82
2023/05/04 00:23:31;;;;;;;8.73;2.80;;;;;;;6.90;75.12;101821.91;4930757;29;20052;-82
2023/05/04 00:25:59;;;;;;;3.33;2.20;;;;;;;6.89;75.93;101828.84;4934154;29;20062;-83
2023/05/04 00:28:26;;;;;;;2.53;2.17;;;;;;;6.89;75.64;101818.41;4939683;29;20040;-86
2023/05/04 00:30:56;;;;;;;9.13;3.95;;;;;;;6.91;75.62;101815.84;4929928;29;20150;-81
2023/05/04 00:33:22;;;;;;;6.60;2.33;;;;;;;6.91;76.29;101815.84;4928320;29;20071;-82
2023/05/04 00:35:49;;;;;;;7.43;2.88;;;;;;;6.90;77.10;101814.97;4937614;29;20075;-88
2023/05/04 00:38:17;;;;;;;4.68;2.55;;;;;;;6.92;76.66;101809.81;4941619;28;20151;-83
2023/05/04 00:40:44;;;;;;;4.38;2.60;;;;;;;6.88;76.38;101806.28;4931348;29;20047;-80
2023/05/04 00:43:11;;;;;;;3.55;2.40;;;;;;;6.84;77.78;101803.53;4930590;29;20505;-84
2023/05/04 00:45:38;;;;;;;4.43;3.25;;;;;;;6.81;77.97;101796.53;4914214;29;20043;-82
2023/05/04 00:48:05;;;;;;;4.65;3.05;;;;;;;6.78;78.28;101799.06;4935704;29;20055;-80
2023/05/04 00:50:32;;;;;;;6.70;2.90;;;;;;;6.77;78.35;101800.78;4926317;29;20047;-85
2023/05/04 00:53:08;;;;;;;5.85;2.33;;;;;;;6.76;78.57;101798.13;4935777;29;20052;-83
2023/05/04 00:55:38;;;;;;;6.35;3.35;;;;;;;6.71;78.43;101798.00;4943894;28;20047;-83
2023/05/04 00:58:06;;;;;;;8.27;2.80;;;;;;;6.67;78.91;101796.19;4929549;29;20142;-83
2023/05/04 01:00:33;;;;;;;13.90;3.65;;;;;;;6.65;78.56;101786.56;4930401;29;20098;-82
2023/05/04 01:02:59;;;;;;;5.00;2.55;;;;;;;6.60;78.18;101789.94;4923410;29;20391;-80
2023/05/04 01:05:35;;;;;;;6.53;2.05;;;;;;;6.56;79.04;101790.72;4923470;29;20398;-82
2023/05/04 01:08:11;;;;;;;4.10;2.15;;;;;;;6.53;78.82;101784.53;4931850;29;20050;-81
2023/05/04 01:10:50;;;;;;;4.47;2.60;;;;;;;6.48;78.87;101783.53;4935933;29;20031;-81
2023/05/04 01:13:19;;;;;;;4.43;2.45;;;;;;;6.41;78.81;101783.41;4942679;29;20043;-81
2023/05/04 01:15:46;;;;;;;6.57;2.53;;;;;;;6.39;78.52;101777.25;4931538;29;20049;-83
2023/05/04 01:18:13;;;;;;;3.38;2.22;;;;;;;6.36;78.30;101781.50;4930960;29;20114;-81
2023/05/04 01:20:39;;;;;;;9.45;3.55;;;;;;;6.30;78.60;101782.22;4927080;29;20067;-84
2023/05/04 01:23:06;;;;;;;6.60;2.60;;;;;;;6.23;79.37;101782.88;4913216;29;20055;-82
2023/05/04 01:25:51;;;;;;;4.70;2.00;;;;;;;6.22;79.39;101786.31;4933128;29;20051;-81
2023/05/04 01:28:27;;;;;;;2.78;2.08;;;;;;;6.17;79.33;101791.41;4931585;29;20040;-80
2023/05/04 01:30:58;;;;;;;3.90;2.45;;;;;;;6.13;79.93;101785.22;4931479;29;20071;-87
2023/05/04 01:33:25;;;;;;;6.07;2.38;;;;;;;6.07;79.82;101792.84;4933549;29;20055;-81
2023/05/04 01:35:51;;;;;;;5.03;2.88;;;;;;;6.00;79.83;101780.53;4941092;29;20463;-82
2023/05/04 01:38:18;;;;;;;3.92;2.15;;;;;;;5.95;80.50;101784.69;4930569;29;20044;-81
2023/05/04 01:40:45;;;;;;;3.40;2.33;;;;;;;5.90;80.47;101799.28;4930032;29;20067;-81
2023/05/04 01:43:11;;;;;;;3.60;2.15;;;;;;;5.85;80.86;101790.47;4928897;29;20493;-81
2023/05/04 01:45:38;;;;;;;5.38;2.92;;;;;;;5.85;81.30;101793.06;4917171;29;20074;-82
2023/05/04 01:48:05;;;;;;;4.65;2.15;;;;;;;5.82;81.25;101793.84;4930662;29;20090;-87
2023/05/04 01:50:32;;;;;;;8.63;3.10;;;;;;;5.75;81.77;101792.81;4917481;29;20068;-81
2023/05/04 01:52:58;;;;;;;5.68;3.05;;;;;;;5.69;82.54;101794.34;4942139;29;20051;-80
2023/05/04 01:55:25;;;;;;;5.63;2.60;;;;;;;5.66;82.28;101794.22;4932595;29;20122;-88
2023/05/04 01:57:51;;;;;;;2.72;2.22;;;;;;;5.63;82.71;101787.22;4930946;29;20074;-88
2023/05/04 02:00:18;;;;;;;4.07;2.22;;;;;;;5.63;83.02;101784.63;4928584;28;20066;-81
2023/05/04 02:02:45;;;;;;;4.25;2.72;;;;;;;5.59;83.28;101786.28;4913989;29;20770;-84
2023/05/04 02:05:11;;;;;;;4.45;2.47;;;;;;;5.58;84.01;101791.41;4934723;29;20052;-81
2023/05/04 02:07:38;;;;;;;4.78;2.92;;;;;;;5.56;83.76;101788.75;4935075;29;20647;-81
2023/05/04 02:10:05;;;;;;;5.97;2.97;;;;;;;5.57;84.07;101784.47;4936349;29;20054;-90
2023/05/04 02:12:31;;;;;;;6.55;2.40;;;;;;;5.56;84.31;101786.16;4930196;29;20073;-83
2023/05/04 02:14:58;;;;;;;4.82;2.75;;;;;;;5.58;84.54;101781.00;4929021;29;20048;-81
2023/05/04 02:17:24;;;;;;;3.90;2.80;;;;;;;5.58;84.62;101786.22;4936115;29;20043;-80
2023/05/04 02:19:51;;;;;;;5.43;2.70;;;;;;;5.56;84.65;101780.97;4919618;29;20054;-80
2023/05/04 02:22:17;;;;;;;8.02;2.97;;;;;;;5.55;84.35;101781.81;4937419;29;20055;-80
2023/05/04 02:24:44;;;;;;;4.18;2.83;;;;;;;5.50;84.82;101778.22;4908940;29;20075;-81
2023/05/04 02:27:10;;;;;;;11.35;3.25;;;;;;;5.44;84.69;101784.09;4930148;29;20120;-81
2023/05/04 02:29:38;;;;;;;5.88;2.47;;;;;;;5.44;84.91;101788.41;4937083;29;20049;-81
2023/05/04 02:32:04;;;;;;;3.88;2.72;;;;;;;5.39;85.66;101788.25;4918085;29;20074;-81
2023/05/04 02:34:31;;;;;;;5.30;2.55;;;;;;;5.37;86.62;101789.03;4932502;29;20117;-81
2023/05/04 02:36:57;;;;;;;8.45;3.85;;;;;;;5.30;86.44;101788.84;4930839;29;20063;-81
2023/05/04 02:39:24;;;;;;;4.15;2.60;;;;;;;5.28;86.33;101794.84;4935169;28;20388;-80
2023/05/04 02:41:50;;;;;;;6.53;2.95;;;;;;;5.21;86.27;101787.69;4928734;29;20044;-83
2023/05/04 02:44:17;;;;;;;7.30;3.08;;;;;;;5.17;87.14;101799.69;4920837;29;20044;-81
2023/05/04 02:46:44;;;;;;;5.93;2.95;;;;;;;5.12;87.00;101788.28;4936502;29;20048;-83
2023/05/04 02:49:11;;;;;;;6.72;2.90;;;;;;;5.12;87.21;101796.06;4918153;29;20050;-81
2023/05/04 02:51:37;;;;;;;12.05;3.10;;;;;;;5.09;87.69;101795.97;4936163;28;20043;-81
2023/05/04 02:54:05;;;;;;;4.55;2.75;;;;;;;5.05;87.92;101792.41;4922178;29;20091;-87
2023/05/04 02:56:31;;;;;;;11.25;2.80;;;;;;;5.04;88.28;101784.56;4933774;29;20071;-81
2023/05/04 02:58:58;;;;;;;8.38;2.90;;;;;;;5.01;88.75;101789.66;4916013;29;20063;-82
2023/05/04 03:01:25;;;;;;;4.22;2.95;;;;;;;4.99;88.42;101780.94;4930862;28;20101;-83
2023/05/04 03:03:51;;;;;;;7.15;2.70;;;;;;;4.93;88.37;101781.63;4939216;29;20095;-82
2023/05/04 03:06:18;;;;;;;4.90;3.03;;;;;;;4.88;89.04;101775.41;4930324;29;20047;-81
2023/05/04 03:08:44;;;;;;;5.00;3.28;;;;;;;4.87;89.36;101776.25;4928176;29;20413;-80
2023/05/04 03:11:10;;;;;;;3.05;2.72;;;;;;;4.81;89.77;101776.94;4926208;29;20040;-81
2023/05/04 03:13:37;;;;;;;3.78;2.65;;;;;;;4.78;90.21;101776.81;4928172;29;20072;-81
2023/05/04 03:16:04;;;;;;;7.75;2.90;;;;;;;4.76;90.80;101774.16;4931593;29;20043;-81
2023/05/04 03:18:31;;;;;;;2.65;2.15;;;;;;;4.75;90.62;101771.53;4931967;29;20051;-81
2023/05/04 03:20:57;;;;;;;6.90;2.83;;;;;;;4.70;91.03;101770.50;4921801;29;20490;-82
2023/05/04 03:23:24;;;;;;;4.35;2.63;;;;;;;4.69;91.55;101764.41;4930790;29;20122;-86
2023/05/04 03:25:50;;;;;;;5.32;2.15;;;;;;;4.67;91.21;101768.69;4932571;29;20071;-84
2023/05/04 03:28:17;;;;;;;4.32;2.25;;;;;;;4.68;91.42;101766.97;4932794;29;20055;-80
2023/05/04 03:30:43;;;;;;;5.78;3.03;;;;;;;4.68;91.48;101762.66;4941299;28;20044;-82
2023/05/04 03:33:10;;;;;;;12.13;3.25;;;;;;;4.68;91.93;101769.56;4948265;29;20039;-81
2023/05/04 03:35:39;;;;;;;6.03;2.78;;;;;;;4.73;91.76;101766.31;4928222;29;20047;-79
2023/05/04 03:38:10;;;;;;;7.15;2.75;;;;;;;4.72;91.62;101766.22;4941209;29;20047;-80
2023/05/04 03:40:37;;;;;;;5.18;3.00;;;;;;;4.70;92.00;101757.53;4943641;29;20050;-80
2023/05/04 03:43:03;;;;;;;6.53;2.67;;;;;;;4.75;91.75;101767.22;4950684;29;20055;-80
2023/05/04 03:45:30;;;;;;;8.05;3.10;;;;;;;4.75;91.51;101761.16;4947989;29;20035;-82
2023/05/04 03:47:56;;;;;;;9.77;3.75;;;;;;;4.74;91.74;101759.38;4924592;29;20054;-82
2023/05/04 03:50:23;;;;;;;3.80;2.95;;;;;;;4.74;92.43;101747.28;4940399;29;20047;-82
2023/05/04 03:52:50;;;;;;;8.80;3.33;;;;;;;4.75;91.80;101755.97;4944149;28;20490;-81
2023/05/04 03:55:17;;;;;;;5.18;2.45;;;;;;;4.73;91.85;101755.94;4937644;29;20036;-80
2023/05/04 03:57:44;;;;;;;5.72;3.35;;;;;;;4.71;92.28;101751.50;4936665;29;20047;-81
2023/05/04 04:00:11;;;;;;;5.40;2.78;;;;;;;4.70;92.30;101744.56;4936848;29;20447;-81
2023/05/04 04:02:40;;;;;;;5.38;3.03;;;;;;;4.68;92.64;101752.28;4935930;28;20068;-81
2023/05/04 04:05:15;;;;;;;5.75;2.80;;;;;;;4.69;92.42;101750.56;4936425;29;20074;-80
2023/05/04 04:07:41;;;;;;;8.35;3.25;;;;;;;4.70;92.67;101745.44;4932857;29;20530;-81
2023/05/04 04:10:09;;;;;;;5.72;3.15;;;;;;;4.74;92.61;101744.69;4932704;29;20074;-89
2023/05/04 04:12:37;;;;;;;6.07;2.70;;;;;;;4.75;93.13;101745.59;4936022;29;20486;-81
2023/05/04 04:15:04;;;;;;;5.47;3.38;;;;;;;4.75;92.24;101745.59;4921194;29;20062;-81
2023/05/04 04:32:26;;;;;;;5.82;3.25;;;;;;;4.91;92.51;101732.25;5759579;23;20066;-83
2023/05/04 04:34:58;;;;;;;7.15;2.80;;;;;;;4.94;92.32;101729.78;4981469;28;20065;-81
2023/05/04 04:37:45;;;;;;;4.32;2.75;;;;;;;4.98;92.01;101728.16;4981310;28;20101;-81
2023/05/04 04:40:23;;;;;;;12.80;3.55;;;;;;;5.04;91.91;101732.66;4979984;28;20053;-81
2023/05/04 04:43:36;;;;;;;7.47;3.05;;;;;;;5.07;91.63;101738.84;4977258;28;20527;-81
2023/05/04 04:46:05;;;;;;;4.63;2.90;;;;;;;5.12;91.75;101732.06;4978788;28;20137;-82
2023/05/04 04:48:44;;;;;;;6.97;3.08;;;;;;;5.17;91.39;101732.19;4983350;28;20053;-81
2023/05/04 04:51:12;;;;;;;5.30;2.97;;;;;;;5.21;91.18;101730.59;4978847;28;20496;-86
2023/05/04 04:53:39;;;;;;;5.70;2.92;;;;;;;5.27;91.06;101741.16;4974758;28;20046;-83
2023/05/04 04:56:06;;;;;;;6.65;2.95;;;;;;;5.30;90.98;101736.91;4964761;28;20432;-92
2023/05/04 04:58:33;;;;;;;4.68;2.70;;;;;;;5.34;90.85;101731.84;4973289;28;20038;-82
2023/05/04 05:01:01;;;;;;;3.67;2.60;;;;;;;5.42;90.46;101732.94;4980422;28;20062;-82
2023/05/04 05:03:27;;;;;;;5.32;3.42;;;;;;;5.46;90.41;101737.38;4974416;28;20046;-82
2023/05/04 05:05:55;;;;;;;6.40;3.20;;;;;;;5.51;89.89;101727.13;4974160;28;20049;-81
2023/05/04 05:08:21;;;;;;;8.80;2.85;;;;;;;5.54;89.61;101722.03;4967693;28;20057;-81
2023/05/04 05:10:48;;;;;;;7.43;3.70;;;;;;;5.60;89.59;101720.47;4960144;28;20050;-81
2023/05/04 05:13:15;;;;;;;5.35;3.83;;;;;;;5.71;89.17;101717.31;4961737;28;20046;-81
2023/05/04 05:15:42;;;;;;;7.65;4.95;;;;;;;5.83;88.32;101725.47;4976748;28;20056;-81
2023/05/04 05:25:46;;;;;;;10.80;3.90;;;;;;;6.06;86.54;101723.53;5865713;23;20140;-80
2023/05/04 05:28:33;;;;;;;10.18;3.60;;;;;;;6.08;86.14;101727.03;4996707;28;20054;-82
2023/05/04 05:31:19;;;;;;;6.32;3.13;;;;;;;6.12;85.62;101720.22;4982133;28;20057;-81
2023/05/04 05:33:46;;;;;;;14.63;3.60;;;;;;;6.17;85.25;101716.00;4980084;28;20046;-81
2023/05/04 05:37:05;;;;;;;5.40;3.40;;;;;;;6.22;85.20;101716.09;5000915;28;20065;-81
2023/05/04 05:39:52;;;;;;;7.68;3.58;;;;;;;6.29;84.94;101720.66;4989886;28;20081;-81
2023/05/04 05:42:47;;;;;;;4.05;2.78;;;;;;;6.41;84.37;101714.88;4986176;28;20469;-80
2023/05/04 05:45:29;;;;;;;9.45;3.53;;;;;;;6.53;84.48;101725.59;4992995;28;20057;-81
2023/05/04 05:48:15;;;;;;;5.95;3.03;;;;;;;6.66;83.57;101715.47;5004969;28;20045;-81
2023/05/04 05:50:42;;;;;;;11.63;3.53;;;;;;;6.78;83.08;101719.25;4987238;28;20050;-85
2023/05/04 05:53:08;;;;;;;6.22;4.50;;;;;;;6.85;82.20;101722.03;4979970;28;20054;-82
2023/05/04 05:55:35;;;;;;;11.35;3.53;;;;;;;6.95;81.59;101722.25;4987389;28;20051;-82
2023/05/04 05:58:02;;;;;;;5.63;3.20;;;;;;;7.04;81.20;101726.81;4967375;28;20073;-82
2023/05/04 06:00:29;;;;;;;8.30;3.13;;;;;;;7.17;80.41;101733.19;4985963;28;20493;-80
2023/05/04 06:02:56;;;;;;;7.18;4.07;;;;;;;7.28;79.87;101723.00;4984771;28;20396;-79
2023/05/04 06:05:22;;;;;;;8.70;3.85;;;;;;;7.38;79.38;101724.94;4984863;28;20042;-81
2023/05/04 06:07:49;;;;;;;19.75;4.20;;;;;;;7.51;78.98;101726.09;4984450;28;20055;-81
2023/05/04 06:10:23;;;;;;;4.93;2.58;;;;;;;7.68;78.06;101718.63;4983690;28;20062;-80
2023/05/04 06:12:53;;;;;;;6.78;3.10;;;;;;;7.82;76.68;101718.00;4988593;28;20046;-80
2023/05/04 06:51:36;;;;;;;8.00;2.58;;;;;;;10.26;62.86;101711.97;6179198;23;20021;31
2023/05/04 06:54:03;;;;;;;9.77;4.25;;;;;;;10.44;62.54;101710.41;4959595;28;20051;-81
2023/05/04 06:56:30;;;;;;;9.13;4.90;;;;;;;10.48;61.17;101709.59;4937148;28;20369;-80
2023/05/04 06:58:57;;;;;;;7.38;3.05;;;;;;;10.70;60.85;101712.38;4945614;28;20035;-81
2023/05/04 07:01:24;;;;;;;17.77;4.45;;;;;;;10.89;59.78;101706.38;4962106;28;20066;-80
2023/05/04 07:03:57;;;;;;;7.90;3.40;;;;;;;11.05;59.36;101709.09;4965169;28;20047;-80
2023/05/04 07:06:25;;;;;;;4.90;2.65;;;;;;;11.27;58.88;101717.09;4981095;28;20118;-80
2023/05/04 07:08:54;;;;;;;5.43;3.13;;;;;;;11.46;58.28;101715.44;4981002;28;20050;-83
2023/05/04 07:11:21;;;;;;;6.40;3.38;;;;;;;11.56;57.61;101720.75;4963849;28;20039;-82
2023/05/04 07:14:33;;;;;;;4.97;3.08;;;;;;;11.67;57.20;101714.66;4979379;28;20114;-81
2023/05/04 07:49:06;;;;;;;8.18;3.60;;;;;;;13.64;49.91;101689.19;5388241;23;20412;-81
2023/05/04 07:51:38;;;;;;;4.95;2.95;;;;;;;13.73;50.11;101686.50;4970652;28;20400;-82
2023/05/04 07:54:05;;;;;;;4.22;3.33;;;;;;;13.78;49.79;101697.00;5000150;28;20046;-82
2023/05/04 07:56:32;;;;;;;8.80;4.53;;;;;;;13.77;49.16;101685.59;5000081;28;20056;-81
2023/05/04 07:59:12;;;;;;;8.82;3.65;;;;;;;13.57;49.14;101690.94;5001950;28;20046;-81
2023/05/04 08:01:38;;;;;;;5.70;3.35;;;;;;;13.74;50.37;101696.16;5013713;28;20104;-81
2023/05/04 08:04:05;;;;;;;6.30;3.30;;;;;;;14.06;49.66;101681.91;4983903;28;20053;-81
2023/05/04 08:06:33;;;;;;;6.13;4.22;;;;;;;14.19;48.43;101688.81;4972815;28;20137;-81
2023/05/04 08:09:00;;;;;;;4.30;3.25;;;;;;;14.30;48.08;101688.75;4972467;28;20137;-81
2023/05/04 08:11:26;;;;;;;6.88;3.38;;;;;;;14.53;48.29;101687.69;5002860;28;20042;-81
2023/05/04 08:13:53;;;;;;;7.53;4.07;;;;;;;14.60;47.53;101684.13;4961547;28;20054;-81
2023/05/04 08:16:19;;;;;;;4.75;3.17;;;;;;;14.56;47.95;101678.00;4981630;28;20045;-81
2023/05/04 08:26:32;;;;;;;11.15;3.20;;;;;;;15.77;45.62;101666.06;5700488;23;20101;-81
2023/05/04 08:29:09;;;;;;;7.93;3.30;;;;;;;16.26;44.25;101655.69;4983584;28;20505;-81
2023/05/04 08:31:36;;;;;;;8.07;2.60;;;;;;;16.00;44.64;101663.13;5000556;28;20440;-81
2023/05/04 08:34:04;;;;;;;10.18;3.10;;;;;;;15.80;45.13;101650.19;4991577;28;20062;-82
2023/05/04 08:36:31;;;;;;;6.05;3.40;;;;;;;16.08;45.33;101656.84;4979156;28;20043;-82
2023/05/04 08:38:57;;;;;;;5.82;3.03;;;;;;;16.08;45.00;101641.00;4980163;28;20046;-81
2023/05/04 08:41:24;;;;;;;8.18;2.90;;;;;;;16.63;44.59;101636.53;4977068;28;20432;-81
2023/05/04 08:43:51;;;;;;;9.13;3.08;;;;;;;16.94;42.94;101641.28;4976847;28;20134;-81
2023/05/04 08:46:18;;;;;;;3.42;2.53;;;;;;;17.22;42.44;101633.63;4995506;28;20060;-80
2023/05/04 08:48:45;;;;;;;6.47;2.47;;;;;;;17.23;42.59;101629.22;5014557;28;20048;-81
2023/05/04 08:51:11;;;;;;;6.55;2.70;;;;;;;17.48;42.17;101632.19;4978637;28;20038;-81
2023/05/04 08:53:44;;;;;;;6.65;2.70;;;;;;;17.62;41.76;101622.16;4978224;28;20050;-80
2023/05/04 08:56:15;;;;;;;5.60;2.80;;;;;;;17.72;40.87;101619.28;4961821;28;20046;-83
2023/05/04 08:58:50;;;;;;;6.45;1.98;;;;;;;17.79;39.23;101619.13;4976726;28;20293;-81
2023/05/04 09:01:21;;;;;;;6.68;2.35;;;;;;;17.64;40.79;101611.56;4982131;28;20046;-80
2023/05/04 09:03:50;;;;;;;4.13;2.05;;;;;;;17.99;40.22;101610.75;4976690;28;20042;-84
2023/05/04 09:06:17;;;;;;;4.45;2.33;;;;;;;18.54;38.22;101614.63;4991678;28;20043;-80
2023/05/04 09:08:43;;;;;;;5.72;2.33;;;;;;;18.44;38.45;101609.59;4970945;28;20057;-83
2023/05/04 09:11:10;;;;;;;3.70;2.70;;;;;;;18.21;38.27;101601.38;4998905;28;20051;-83
2023/05/04 09:13:37;;;;;;;4.05;2.92;;;;;;;18.28;38.58;101609.13;4964820;28;20050;-81
2023/05/04 09:16:04;;;;;;;7.07;2.70;;;;;;;18.48;37.70;101608.59;4963650;28;20128;-83
2023/05/04 09:18:43;;;;;;;6.15;2.75;;;;;;;18.54;37.65;101614.63;5015140;23;20021;-82
2023/05/04 09:21:11;;;;;;;5.53;2.88;;;;;;;18.97;37.81;101606.41;4972307;28;20038;-81
2023/05/04 09:23:50;;;;;;;2.97;2.70;;;;;;;19.47;35.61;101599.63;4975986;28;20121;-80
2023/05/04 09:26:33;;;;;;;5.70;2.72;;;;;;;19.83;35.43;101596.75;4959377;28;20053;-81
2023/05/04 09:29:15;;;;;;;3.50;2.50;;;;;;;20.49;35.21;101601.59;4969344;28;20049;-86
2023/05/04 09:31:47;;;;;;;3.35;2.88;;;;;;;20.99;34.37;101596.25;4977186;28;20046;-81
2023/05/04 09:34:14;;;;;;;6.22;2.75;;;;;;;21.38;34.17;101597.44;4973891;28;20052;-83
2023/05/04 09:36:41;;;;;;;7.43;2.83;;;;;;;21.82;33.15;101596.59;4979393;28;20098;-82
2023/05/04 09:39:16;;;;;;;3.65;2.90;;;;;;;22.04;31.13;101596.56;4954027;28;20581;-87
2023/05/04 09:41:43;;;;;;;6.10;2.80;;;;;;;22.00;32.27;101600.28;4976427;28;20043;-81
2023/05/04 09:44:21;;;;;;;3.83;2.05;;;;;;;22.01;31.48;101590.53;4975693;28;20038;-80
2023/05/04 09:46:55;;;;;;;4.85;2.67;;;;;;;22.24;31.61;101590.41;4962099;28;20110;-81
2023/05/04 09:49:36;;;;;;;4.38;2.55;;;;;;;22.43;31.29;101582.47;4956838;28;20046;-82
2023/05/04 09:52:06;;;;;;;6.85;2.65;;;;;;;22.88;30.53;101588.50;4993692;28;20042;-83
2023/05/04 09:54:36;;;;;;;4.53;2.20;;;;;;;23.07;30.28;101584.97;4975702;28;20510;-81
2023/05/04 09:57:14;;;;;;;3.35;2.08;;;;;;;23.43;29.29;101577.03;4973176;28;20065;-81
2023/05/04 09:59:42;;;;;;;4.32;2.25;;;;;;;23.72;29.24;101574.72;4958791;28;20054;-82
2023/05/04 10:02:10;;;;;;;2.58;2.22;;;;;;;23.87;28.45;101559.75;4975876;28;20046;-84
2023/05/04 10:04:37;;;;;;;3.92;2.25;;;;;;;23.46;29.73;101568.00;4976537;28;20053;-82
2023/05/04 10:07:04;;;;;;;4.68;2.40;;;;;;;23.62;29.27;101568.09;4987660;28;20052;-82
2023/05/04 10:09:33;;;;;;;2.75;2.28;;;;;;;23.53;29.49;101557.88;4976014;28;20034;-84
2023/05/04 10:12:04;;;;;;;3.33;2.60;;;;;;;22.90;29.89;101559.91;4978086;28;20045;-82
2023/05/04 10:14:32;;;;;;;3.60;2.10;;;;;;;23.59;29.64;101561.09;4971412;28;20485;-82
2023/05/04 10:17:28;;;;;;;4.43;2.10;;;;;;;24.70;27.40;101551.91;4982661;28;20560;-81
2023/05/04 10:20:19;;;;;;;4.53;2.28;;;;;;;25.49;26.58;101552.91;4970750;28;20133;-82
2023/05/04 10:23:23;;;;;;;2.55;2.35;;;;;;;25.71;26.00;101552.53;4991868;28;20059;-82
2023/05/04 10:26:40;;;;;;;5.07;2.72;;;;;;;25.43;25.83;101547.91;4990870;28;20046;-81
2023/05/04 10:29:27;;;;;;;4.40;2.25;;;;;;;25.32;26.64;101543.13;4933782;29;20375;-84
2023/05/04 10:31:55;;;;;;;4.00;2.53;;;;;;;25.81;25.81;101550.16;4923993;29;20047;-82
2023/05/04 10:34:33;;;;;;;4.43;2.50;;;;;;;25.61;25.96;101545.13;4956183;28;20047;-82
2023/05/04 10:37:01;;;;;;;3.10;2.22;;;;;;;26.41;25.53;101540.34;4967965;28;20051;-82
2023/05/04 10:39:34;;;;;;;2.50;2.30;;;;;;;25.83;24.85;101550.09;4974168;28;20130;-83
2023/05/04 10:42:05;;;;;;;;;;;;;;;25.51;25.33;101537.59;4966472;28;20050;-82
2023/05/04 10:44:36;;;;;;;4.93;2.55;;;;;;;26.40;25.33;101526.06;4973471;28;20332;-82
2023/05/04 10:47:05;;;;;;;3.80;2.58;;;;;;;26.53;25.10;101530.66;4988579;28;20042;-83
2023/05/04 10:49:34;;;;;;;3.65;2.10;;;;;;;27.20;24.50;101525.50;4961279;28;20050;-82
2023/05/04 10:52:16;;;;;;;2.30;2.10;;;;;;;27.57;24.14;101524.91;4972684;28;20066;-84
2023/05/04 10:54:44;;;;;;;3.50;1.80;;;;;;;28.27;24.01;101518.38;4978928;28;20049;-89
2023/05/04 10:57:15;;;;;;;3.35;2.67;;;;;;;28.50;23.40;101519.44;4974070;28;20457;-83
2023/05/04 10:59:42;;;;;;;5.63;2.85;;;;;;;28.83;22.65;101506.38;4971807;28;20042;-82
2023/05/04 11:02:09;;;;;;;3.70;2.65;;;;;;;27.23;23.58;101506.50;4976841;28;20121;-84
2023/05/04 11:04:36;;;;;;;4.22;2.25;;;;;;;26.74;24.91;101507.84;4951853;28;20054;-81
2023/05/04 11:07:07;;;;;;;7.60;2.72;;;;;;;26.49;25.05;101499.59;4955924;28;20056;-84
2023/05/04 11:09:41;;;;;;;4.10;2.70;;;;;;;26.27;25.08;101492.91;4982792;28;20046;-84
2023/05/04 11:12:09;;;;;;;2.22;2.08;;;;;;;26.55;25.06;101485.78;4970850;28;20043;-82
2023/05/04 11:14:41;;;;;;;4.07;2.78;;;;;;;26.56;24.90;101485.69;4976648;28;20042;-89
2023/05/04 11:17:09;;;;;;;6.65;2.65;;;;;;;26.90;23.99;101480.00;4960190;28;20142;-81
2023/05/04 11:19:36;;;;;;;3.55;2.20;;;;;;;26.83;24.04;101473.28;4975774;28;20042;-81
2023/05/04 11:22:03;;;;;;;3.70;2.67;;;;;;;25.53;25.05;101481.22;4955710;28;20421;-82
2023/05/04 11:24:44;;;;;;;3.75;2.75;;;;;;;26.14;24.42;101473.13;4963904;28;20095;-85
2023/05/04 11:27:28;;;;;;;3.55;1.98;;;;;;;26.01;24.19;101472.97;4961133;28;20109;-83
2023/05/04 11:30:04;;;;;;;3.80;2.10;;;;;;;26.79;24.06;101463.72;4993343;28;20117;-82
2023/05/04 11:32:42;;;;;;;3.90;2.30;;;;;;;26.82;23.92;101464.38;4969627;28;20725;-84
2023/05/04 11:35:15;;;;;;;3.47;2.50;;;;;;;26.82;24.16;101452.78;4973666;28;20057;-82
2023/05/04 11:37:43;;;;;;;3.25;2.30;;;;;;;26.46;24.14;101451.47;4976556;28;20043;-88
2023/05/04 11:40:19;;;;;;;4.70;2.58;;;;;;;26.53;24.08;101440.25;4975704;28;20047;-81
2023/05/04 11:42:48;;;;;;;4.03;2.42;;;;;;;27.04;23.95;101445.03;4972423;28;20043;-82
2023/05/04 11:45:21;;;;;;;4.97;3.10;;;;;;;27.10;23.63;101446.44;4981973;28;20061;-82
2023/05/04 11:47:50;;;;;;;7.13;2.33;;;;;;;27.47;23.81;101433.25;4977145;28;20038;-82
2023/05/04 11:50:20;;;;;;;5.03;3.17;;;;;;;27.79;23.20;101432.84;4962774;28;20038;-81
2023/05/04 11:52:47;;;;;;;7.22;2.33;;;;;;;27.62;23.83;101438.56;4970032;28;20038;-83
2023/05/04 11:55:31;;;;;;;5.15;2.25;;;;;;;28.06;22.99;101429.22;4960760;28;20116;-89
2023/05/04 11:58:11;;;;;;;4.22;2.08;;;;;;;28.28;22.66;101423.19;4966411;28;20069;-81
2023/05/04 12:00:47;;;;;;;3.97;1.95;;;;;;;28.04;23.27;101423.97;4976895;28;20046;-85
2023/05/04 12:03:33;;;;;;;6.20;2.60;;;;;;;27.98;22.72;101413.59;4978646;28;20050;-82
2023/05/04 12:06:01;;;;;;;5.03;2.13;;;;;;;27.89;23.36;101423.16;4971489;28;20539;-85
2023/05/04 12:08:40;;;;;;;3.03;2.40;;;;;;;28.25;22.64;101409.06;4978445;28;20042;-81
2023/05/04 12:11:24;;;;;;;3.78;2.00;;;;;;;27.75;23.04;101415.22;4971455;28;20050;-84
2023/05/04 12:14:03;;;;;;;8.25;2.28;;;;;;;27.22;23.57;101402.63;4960427;28;20566;-82
2023/05/04 12:16:30;;;;;;;2.75;2.28;;;;;;;26.73;24.51;101428.25;4956614;28;20058;-82
2023/05/04 12:19:06;;;;;;;4.50;2.35;;;;;;;25.29;25.78;101414.66;4975197;28;20141;-89
2023/05/04 12:21:35;;;;;;;3.10;2.20;;;;;;;24.84;26.59;101411.91;4965867;28;20125;-86
2023/05/04 12:24:03;;;;;;;4.63;2.13;;;;;;;25.24;25.58;101408.75;4975754;28;20046;-83
2023/05/04 12:26:30;;;;;;;2.88;1.55;;;;;;;25.19;25.87;101408.16;4975528;28;20052;-85
2023/05/04 12:28:57;;;;;;;2.30;1.88;;;;;;;25.65;25.45;101399.19;4977744;28;20053;-81
2023/05/04 12:31:24;;;;;;;3.95;1.80;;;;;;;25.65;25.30;101402.72;4975561;28;20040;-84
2023/05/04 12:33:50;;;;;;;6.43;2.03;;;;;;;25.27;25.62;101396.00;4991989;28;20046;-82
2023/05/04 12:36:17;;;;;;;3.50;2.25;;;;;;;24.87;26.32;101400.16;4975972;28;20130;-81
2023/05/04 12:38:44;;;;;;;4.32;2.28;;;;;;;24.77;26.38;101387.31;4973187;28;20533;-91
2023/05/04 12:41:11;;;;;;;4.88;2.25;;;;;;;24.74;26.52;101390.16;4974944;28;20042;-85
2023/05/04 12:43:38;;;;;;;7.07;2.28;;;;;;;24.75;26.80;101396.38;4971746;28;20501;-87
2023/05/04 12:46:04;;;;;;;5.85;2.63;;;;;;;24.39;27.01;101387.63;4971772;28;20050;-83
2023/05/04 12:48:31;;;;;;;3.88;1.90;;;;;;;24.17;26.82;101395.09;4967492;28;20034;-85
2023/05/04 12:51:00;;;;;;;3.72;1.90;;;;;;;23.90;27.44;101395.66;4971846;28;20382;-82
2023/05/04 12:53:30;;;;;;;5.38;2.50;;;;;;;23.62;27.53;101391.72;4973110;28;20045;-83
2023/05/04 12:55:58;;;;;;;2.58;1.85;;;;;;;23.38;27.35;101388.50;4958510;28;20413;-83
2023/05/04 12:58:24;;;;;;;2.13;1.95;;;;;;;23.30;27.58;101386.22;4957263;28;20047;-86
2023/05/04 13:00:51;;;;;;;6.00;2.15;;;;;;;23.30;27.37;101380.88;4986932;28;20043;-84
2023/05/04 13:03:18;;;;;;;3.35;1.60;;;;;;;23.32;27.56;101376.31;4970385;28;20393;-83
2023/05/04 13:05:46;;;;;;;4.15;1.85;;;;;;;23.30;27.93;101380.88;4970903;28;20054;-85
2023/05/04 13:08:13;;;;;;;3.10;2.03;;;;;;;23.57;27.87;101386.63;4973106;28;20053;-82
2023/05/04 13:10:39;;;;;;;6.82;1.92;;;;;;;23.52;27.33;101379.75;4973197;28;20042;-83
2023/05/04 13:13:06;;;;;;;2.30;2.10;;;;;;;23.53;27.19;101370.81;4972417;28;20053;-85
2023/05/04 13:15:32;;;;;;;3.40;1.70;;;;;;;23.75;27.63;101365.19;4990953;28;20096;-83
2023/05/04 13:17:59;;;;;;;3.70;2.25;;;;;;;24.73;26.33;101363.44;4991304;28;20109;-82
2023/05/04 13:20:26;;;;;;;3.92;2.00;;;;;;;25.28;25.81;101364.72;4973449;28;20101;-85
2023/05/04 13:22:52;;;;;;;1.85;1.60;;;;;;;25.51;25.60;101359.81;4973065;28;20420;-84